Nottely Observed Data For Previous 48 Hours

Caption
Day and Hour Reservoir Elevation (behind dam)* Tailwater Elevation (below dam)* Average Hourly Discharge*
9/21/2017 2 AM EDT 1,768.02 1,607.15 64
9/21/2017 3 AM EDT 1,768.02 1,607.15 64
9/21/2017 4 AM EDT 1,768.02 1,607.14 64
9/21/2017 5 AM EDT 1,768.02 1,607.14 64
9/21/2017 6 AM EDT 1,768.02 1,607.15 64
9/21/2017 7 AM EDT 1,768.03 1,607.15 64
9/21/2017 8 AM EDT 1,768.03 1,607.15 64
9/21/2017 9 AM EDT 1,768.03 1,607.14 64
9/21/2017 10 AM EDT 1,768.03 1,607.14 64
9/21/2017 11 AM EDT 1,768.03 1,607.15 64
9/21/2017 12 PM EDT 1,768.03 1,607.15 64
9/21/2017 1 PM EDT 1,768.02 1,610.61 131
9/21/2017 2 PM EDT 1,768.00 1,611.43 1,374
9/21/2017 3 PM EDT 1,767.97 1,611.40 1,377
9/21/2017 4 PM EDT 1,767.94 1,611.45 1,370
9/21/2017 5 PM EDT 1,767.92 1,611.40 1,370
9/21/2017 6 PM EDT 1,767.88 1,611.44 1,364
9/21/2017 7 PM EDT 1,767.86 1,611.40 1,363
9/21/2017 8 PM EDT 1,767.82 1,611.43 1,368
9/21/2017 9 PM EDT 1,767.79 1,611.43 1,366
9/21/2017 10 PM EDT 1,767.80 1,607.16 150
9/21/2017 11 PM EDT 1,767.79 1,607.16 64
9/22/2017 12 AM EDT 1,767.80 1,607.16 64
9/22/2017 1 AM EDT 1,767.79 1,607.17 64
9/22/2017 2 AM EDT 1,767.81 1,607.18 64
9/22/2017 3 AM EDT 1,767.80 1,607.16 64
9/22/2017 4 AM EDT 1,767.81 1,607.16 64
9/22/2017 5 AM EDT 1,767.81 1,607.17 64
9/22/2017 6 AM EDT 1,767.81 1,607.17 64
9/22/2017 7 AM EDT 1,767.81 1,607.16 64
9/22/2017 8 AM EDT 1,767.81 1,607.16 64
9/22/2017 9 AM EDT 1,767.81 1,607.17 64
9/22/2017 10 AM EDT 1,767.81 1,607.17 64
9/22/2017 11 AM EDT 1,767.81 1,607.16 64
9/22/2017 12 PM EDT 1,767.81 1,607.16 64
9/22/2017 1 PM EDT 1,767.81 1,610.41 111
9/22/2017 2 PM EDT 1,767.79 1,611.41 1,374
9/22/2017 3 PM EDT 1,767.76 1,611.39 1,374
9/22/2017 4 PM EDT 1,767.73 1,611.41 1,372
9/22/2017 5 PM EDT 1,767.70 1,611.44 1,369
9/22/2017 6 PM EDT 1,767.67 1,611.41 1,369
9/22/2017 7 PM EDT 1,767.65 1,611.41 1,362
9/22/2017 8 PM EDT 1,767.62 1,611.39 1,364
9/22/2017 9 PM EDT 1,767.59 1,611.39 1,360
9/22/2017 10 PM EDT 1,767.60 1,607.15 209
9/22/2017 11 PM EDT 1,767.59 1,607.16 64
9/23/2017 12 AM EDT 1,767.60 1,607.16 64
9/23/2017 1 AM EDT 1,767.60 1,607.16 64
9/23/2017 2 AM EDT 1,767.61 1,607.16 64
9/23/2017 3 AM EDT 1,767.60 1,607.15 64

Elevations are in feet above sea level. Discharges are in cubic feet per second and are reported at the end of the hour.